Time;durP1;ratioP1;P1;durP2;ratioP2;P2;SDS_P1;SDS_P2;PMS_P1;PMS_P2;Temp;Humidity;BMP_temperature;BMP_pressure;BME280_temperature;BME280_humidity;BME280_pressure;Samples;Min_cycle;Max_cycle;Signal;HPM_P1;HPM_P2
2023/08/22 00:00:41;;;;;;;10.57;9.77;;;26.10;27.00;;;;;;5072183;28;20412;-78
2023/08/22 00:03:06;;;;;;;9.77;9.10;;;26.10;26.80;;;;;;5072166;28;20168;-79
2023/08/22 00:05:32;;;;;;;11.47;10.30;;;26.10;26.90;;;;;;5073803;28;20172;-79
2023/08/22 00:08:00;;;;;;;10.00;9.30;;;26.10;26.90;;;;;;5075596;28;20179;-78
2023/08/22 00:10:25;;;;;;;10.60;9.83;;;26.10;26.90;;;;;;5075914;28;20420;-78
2023/08/22 00:12:51;;;;;;;10.93;10.23;;;26.00;27.10;;;;;;5075681;28;20497;-79
2023/08/22 00:15:16;;;;;;;10.30;9.70;;;26.10;27.70;;;;;;5059249;28;20886;-78
2023/08/22 00:17:43;;;;;;;10.17;9.57;;;26.00;27.00;;;;;;5074527;28;20182;-78
2023/08/22 00:20:13;;;;;;;9.80;9.10;;;26.00;27.00;;;;;;5074521;28;20253;-78
2023/08/22 00:22:40;;;;;;;10.83;10.20;;;26.00;27.20;;;;;;5074645;28;20459;-78
2023/08/22 00:25:06;;;;;;;10.10;9.40;;;26.00;27.30;;;;;;5074498;28;20483;-79
2023/08/22 00:27:31;;;;;;;10.17;9.57;;;26.00;27.30;;;;;;5057126;28;20517;-77
2023/08/22 00:29:57;;;;;;;10.73;9.53;;;26.00;27.30;;;;;;5075592;28;20485;-77
2023/08/22 00:32:24;;;;;;;10.50;9.87;;;25.90;27.50;;;;;;5076084;28;20178;-77
2023/08/22 00:34:49;;;;;;;10.30;9.60;;;25.90;27.50;;;;;;5075866;28;20195;-78
2023/08/22 00:37:15;;;;;;;10.77;10.03;;;25.90;27.50;;;;;;5075590;28;20468;-78
2023/08/22 00:39:40;;;;;;;11.03;10.23;;;25.90;27.30;;;;;;5074176;28;20175;-78
2023/08/22 00:42:06;;;;;;;10.50;9.63;;;25.90;27.30;;;;;;5074414;28;20175;-78
2023/08/22 00:44:32;;;;;;;11.33;10.53;;;25.90;27.30;;;;;;5056081;28;20282;-78
2023/08/22 00:46:58;;;;;;;14.30;10.33;;;25.90;27.30;;;;;;5074196;28;20241;-78
2023/08/22 00:49:24;;;;;;;10.43;9.90;;;25.90;27.40;;;;;;5073975;28;20175;-77
2023/08/22 00:51:50;;;;;;;10.17;9.40;;;25.90;27.30;;;;;;5073787;28;20194;-78
2023/08/22 00:54:17;;;;;;;11.20;10.20;;;25.90;27.20;;;;;;5074118;28;20461;-77
2023/08/22 00:56:43;;;;;;;10.77;10.07;;;25.90;27.30;;;;;;5073782;28;20472;-79
2023/08/22 00:59:09;;;;;;;10.10;9.37;;;25.90;27.40;;;;;;5074191;28;20428;-79
2023/08/22 01:01:35;;;;;;;10.07;9.33;;;25.90;27.50;;;;;;5073656;28;20954;-77
2023/08/22 01:04:00;;;;;;;10.73;9.87;;;25.90;27.60;;;;;;5073664;28;20517;-78
2023/08/22 01:06:55;;;;;;;10.53;9.73;;;25.80;27.80;;;;;;5073771;28;20659;-78
2023/08/22 01:10:06;;;;;;;13.13;11.90;;;25.80;28.10;;;;;;5055617;28;20613;-78
2023/08/22 01:12:57;;;;;;;11.53;10.83;;;25.80;28.30;;;;;;5057962;28;20793;-77
2023/08/22 01:31:01;;;;;;;11.47;10.20;;;25.60;28.40;;;;;;5662917;22;20483;-75
2023/08/22 01:33:31;;;;;;;10.67;9.97;;;25.60;28.30;;;;;;5080624;28;20496;-76
2023/08/22 01:35:57;;;;;;;10.60;9.80;;;25.60;28.30;;;;;;5094350;28;20459;-75
2023/08/22 01:38:25;;;;;;;11.57;10.57;;;25.60;28.30;;;;;;5093914;28;20404;-76
2023/08/22 01:40:52;;;;;;;10.27;9.67;;;25.50;28.10;;;;;;5093859;28;20704;-76
2023/08/22 01:43:21;;;;;;;10.70;9.90;;;25.60;28.20;;;;;;5094405;28;20461;-75
2023/08/22 01:45:47;;;;;;;11.63;10.63;;;25.50;28.10;;;;;;5093978;28;20412;-75
2023/08/22 01:48:13;;;;;;;11.33;10.63;;;25.50;28.10;;;;;;5093709;28;20416;-76
2023/08/22 01:50:38;;;;;;;10.30;9.70;;;25.60;28.10;;;;;;5093623;28;20409;-75
2023/08/22 01:53:04;;;;;;;11.10;10.50;;;25.50;28.10;;;;;;5093862;28;20217;-74
2023/08/22 01:55:29;;;;;;;10.53;9.73;;;25.50;28.40;;;;;;5093307;28;20570;-75
2023/08/22 01:57:55;;;;;;;9.60;9.10;;;25.50;28.30;;;;;;5093120;28;20174;-76
2023/08/22 02:00:21;;;;;;;10.20;9.47;;;25.50;28.30;;;;;;5093681;28;20162;-76
2023/08/22 02:02:47;;;;;;;10.47;9.77;;;25.50;28.30;;;;;;5075286;28;20209;-76
2023/08/22 02:05:12;;;;;;;10.30;9.70;;;25.50;28.40;;;;;;5093806;28;20424;-76
2023/08/22 02:07:38;;;;;;;10.50;9.57;;;25.40;28.50;;;;;;5075367;28;20233;-75
2023/08/22 02:10:04;;;;;;;11.40;10.80;;;25.40;28.80;;;;;;5093117;28;20614;-76
2023/08/22 02:12:29;;;;;;;10.07;9.37;;;25.40;28.80;;;;;;5093182;28;20178;-77
2023/08/22 02:14:55;;;;;;;10.07;9.47;;;25.40;28.80;;;;;;5074910;28;20196;-76
2023/08/22 02:17:20;;;;;;;11.23;10.63;;;25.40;28.80;;;;;;5093615;28;20290;-75
2023/08/22 02:19:46;;;;;;;11.00;10.20;;;25.40;28.90;;;;;;5093109;28;20170;-76
2023/08/22 02:22:12;;;;;;;10.90;9.80;;;25.40;28.80;;;;;;5093005;28;20212;-76
2023/08/22 02:24:37;;;;;;;11.00;10.13;;;25.30;29.00;;;;;;5092688;28;20233;-76
2023/08/22 02:27:06;;;;;;;11.03;10.10;;;25.40;29.00;;;;;;5093223;28;20266;-76
2023/08/22 02:29:32;;;;;;;11.77;10.97;;;25.40;29.00;;;;;;5074299;28;20178;-75
2023/08/22 02:31:58;;;;;;;10.77;9.93;;;25.40;28.90;;;;;;5092999;28;20464;-76
2023/08/22 02:34:24;;;;;;;10.93;10.37;;;25.40;28.80;;;;;;5074970;28;20456;-76
2023/08/22 02:36:50;;;;;;;11.40;10.50;;;25.40;28.90;;;;;;5093326;28;20199;-76
2023/08/22 02:39:16;;;;;;;11.97;11.17;;;25.30;29.20;;;;;;5092784;28;20830;-76
2023/08/22 02:41:41;;;;;;;11.57;10.70;;;25.30;29.40;;;;;;5074819;28;20648;-75
2023/08/22 02:44:07;;;;;;;11.37;10.63;;;25.30;29.40;;;;;;5074807;28;20189;-76
2023/08/22 02:46:32;;;;;;;12.10;11.30;;;25.20;29.60;;;;;;5093273;28;20296;-76
2023/08/22 02:48:58;;;;;;;11.57;10.87;;;25.20;29.70;;;;;;5092520;28;20171;-75
2023/08/22 02:51:23;;;;;;;11.03;10.37;;;25.20;29.90;;;;;;5092704;28;20189;-74
2023/08/22 02:53:49;;;;;;;12.47;11.73;;;25.20;29.90;;;;;;5092133;28;20697;-76
2023/08/22 02:56:14;;;;;;;11.30;10.50;;;25.20;29.90;;;;;;5093099;28;20851;-76
2023/08/22 02:58:40;;;;;;;12.17;11.37;;;25.20;29.80;;;;;;5073982;28;20174;-76
2023/08/22 03:01:07;;;;;;;11.83;11.00;;;25.20;30.00;;;;;;5074366;28;20239;-75
2023/08/22 03:03:33;;;;;;;12.37;11.30;;;25.20;30.20;;;;;;5074111;28;20921;-76
2023/08/22 03:06:00;;;;;;;12.40;11.50;;;25.10;30.50;;;;;;5092868;28;20447;-76
2023/08/22 03:08:26;;;;;;;12.97;12.17;;;25.10;30.70;;;;;;5074305;28;20554;-76
2023/08/22 03:10:51;;;;;;;13.43;12.30;;;25.10;30.90;;;;;;5092062;28;20445;-76
2023/08/22 03:13:17;;;;;;;12.63;12.03;;;25.10;30.90;;;;;;5092103;28;20166;-76
2023/08/22 03:15:44;;;;;;;13.93;12.93;;;25.10;30.80;;;;;;5091989;28;20205;-75
2023/08/22 03:18:09;;;;;;;14.13;13.33;;;25.10;30.80;;;;;;5092089;28;20163;-75
2023/08/22 03:20:35;;;;;;;11.80;11.10;;;25.10;30.50;;;;;;5092186;28;20401;-76
2023/08/22 03:23:00;;;;;;;12.50;11.50;;;25.10;30.50;;;;;;5092122;28;20635;-76
2023/08/22 03:25:26;;;;;;;12.07;11.37;;;25.10;30.40;;;;;;5091911;28;20183;-76
2023/08/22 03:27:51;;;;;;;14.00;13.10;;;25.10;30.50;;;;;;5091817;28;20580;-75
2023/08/22 03:30:17;;;;;;;12.57;11.77;;;25.10;30.50;;;;;;5074107;28;20327;-75
2023/08/22 03:32:42;;;;;;;13.37;12.57;;;25.10;30.40;;;;;;5092135;28;20300;-76
2023/08/22 03:35:08;;;;;;;12.03;11.43;;;25.10;30.50;;;;;;5091817;28;20187;-76
2023/08/22 03:37:34;;;;;;;13.70;12.80;;;25.10;30.40;;;;;;5091650;28;20202;-76
2023/08/22 03:40:00;;;;;;;13.10;12.20;;;25.10;30.50;;;;;;5092076;28;20163;-76
2023/08/22 03:42:25;;;;;;;13.77;12.87;;;25.10;30.20;;;;;;5095907;28;20171;-76
2023/08/22 03:44:52;;;;;;;12.90;12.00;;;25.10;30.60;;;;;;5077711;28;20447;-74
2023/08/22 03:47:17;;;;;;;14.30;13.17;;;25.10;30.50;;;;;;5095712;28;20232;-75
2023/08/22 03:49:43;;;;;;;14.87;13.97;;;25.00;30.40;;;;;;5095302;28;20910;-75
2023/08/22 03:52:09;;;;;;;14.07;12.97;;;25.00;30.80;;;;;;5095580;28;20600;-76
2023/08/22 03:54:34;;;;;;;12.50;11.80;;;25.00;31.10;;;;;;5095759;28;20251;-75
2023/08/22 03:57:00;;;;;;;13.77;12.97;;;25.00;31.10;;;;;;5095570;28;20284;-75
2023/08/22 03:59:26;;;;;;;13.63;12.83;;;25.00;31.30;;;;;;5095278;28;20175;-76
2023/08/22 04:01:51;;;;;;;13.10;12.10;;;25.00;31.20;;;;;;5095432;28;20166;-75
2023/08/22 04:04:17;;;;;;;13.30;12.50;;;24.90;31.20;;;;;;5095417;28;20187;-76
2023/08/22 04:06:42;;;;;;;13.70;13.00;;;24.90;31.10;;;;;;5095980;28;20201;-76
2023/08/22 04:09:09;;;;;;;13.57;12.80;;;24.90;31.30;;;;;;5096302;28;20200;-75
2023/08/22 04:11:34;;;;;;;15.17;14.17;;;25.00;31.20;;;;;;5096838;28;20196;-74
2023/08/22 04:14:00;;;;;;;15.50;14.33;;;24.90;31.30;;;;;;5095365;28;20515;-75
2023/08/22 04:16:26;;;;;;;15.27;14.47;;;24.90;31.50;;;;;;5095494;28;20206;-76
2023/08/22 04:18:51;;;;;;;15.50;14.60;;;24.90;31.50;;;;;;5077137;28;20171;-76
2023/08/22 04:21:17;;;;;;;14.63;13.83;;;24.90;31.60;;;;;;5092199;28;20175;-76
2023/08/22 04:23:42;;;;;;;15.77;14.80;;;24.90;31.70;;;;;;5057399;28;20539;-75
2023/08/22 04:26:08;;;;;;;15.00;14.30;;;24.90;31.70;;;;;;5057372;28;20175;-76
2023/08/22 04:28:37;;;;;;;14.27;13.47;;;24.90;32.00;;;;;;5058189;28;20282;-75
2023/08/22 04:31:09;;;;;;;14.67;13.57;;;24.80;31.90;;;;;;5057473;28;20213;-74
2023/08/22 04:33:34;;;;;;;15.07;14.07;;;24.80;32.00;;;;;;5058185;28;20777;-74
2023/08/22 04:36:00;;;;;;;14.73;13.63;;;24.80;32.10;;;;;;5056872;28;20467;-74
2023/08/22 04:38:26;;;;;;;13.00;12.10;;;24.80;32.00;;;;;;5056799;28;20637;-74
2023/08/22 04:40:51;;;;;;;13.87;13.03;;;24.80;31.70;;;;;;5075735;28;20664;-75
2023/08/22 04:43:17;;;;;;;13.00;12.07;;;24.80;31.40;;;;;;5076855;28;20186;-76
2023/08/22 04:45:43;;;;;;;14.27;13.57;;;24.70;31.40;;;;;;5059259;28;20782;-75
2023/08/22 04:48:08;;;;;;;13.47;12.60;;;24.70;31.50;;;;;;5076025;28;20538;-76
2023/08/22 04:50:36;;;;;;;14.00;13.20;;;24.80;31.70;;;;;;5058566;28;20428;-76
2023/08/22 04:53:02;;;;;;;14.07;13.27;;;24.80;32.10;;;;;;5076863;28;20194;-75
2023/08/22 04:55:28;;;;;;;14.77;13.80;;;24.70;32.50;;;;;;5075221;28;20437;-73
2023/08/22 04:57:53;;;;;;;13.27;12.53;;;24.70;32.60;;;;;;5074740;28;20751;-75
2023/08/22 05:00:19;;;;;;;14.27;13.47;;;24.70;32.80;;;;;;5074647;28;20183;-74
2023/08/22 05:02:44;;;;;;;13.83;13.00;;;24.60;33.00;;;;;;5074227;28;20199;-74
2023/08/22 05:05:10;;;;;;;14.70;13.90;;;24.70;32.80;;;;;;5074176;28;20187;-74
2023/08/22 05:07:36;;;;;;;15.27;14.27;;;24.70;32.70;;;;;;5074372;28;20186;-74
2023/08/22 05:10:02;;;;;;;14.83;14.03;;;24.70;32.60;;;;;;5074287;28;20187;-74
2023/08/22 05:12:28;;;;;;;14.33;13.33;;;24.70;32.30;;;;;;5056294;28;20450;-76
2023/08/22 05:14:55;;;;;;;15.40;14.53;;;24.70;32.40;;;;;;5076051;28;20802;-78
2023/08/22 05:17:21;;;;;;;15.50;14.60;;;24.70;32.40;;;;;;5058833;28;20203;-77
2023/08/22 05:19:47;;;;;;;15.80;14.70;;;24.70;32.40;;;;;;5060419;28;20426;-78
2023/08/22 05:22:12;;;;;;;14.50;13.60;;;24.70;32.30;;;;;;5086205;28;20217;-78
2023/08/22 05:24:38;;;;;;;14.93;14.17;;;24.80;32.50;;;;;;5077957;28;20195;-79
2023/08/22 05:27:04;;;;;;;15.10;14.20;;;24.70;32.50;;;;;;5084669;28;20187;-78
2023/08/22 05:29:29;;;;;;;15.10;14.20;;;24.60;32.70;;;;;;5076497;28;20175;-80
2023/08/22 05:31:55;;;;;;;15.10;14.30;;;24.60;33.00;;;;;;5085755;28;20445;-78
2023/08/22 05:34:20;;;;;;;15.93;15.07;;;24.60;32.70;;;;;;5075594;28;20198;-78
2023/08/22 05:36:46;;;;;;;16.53;15.53;;;24.70;32.50;;;;;;5074883;28;20696;-78
2023/08/22 05:39:12;;;;;;;14.57;13.50;;;24.60;32.20;;;;;;5087111;28;20162;-77
2023/08/22 05:41:37;;;;;;;16.17;15.00;;;24.70;32.00;;;;;;5088847;28;20179;-78
2023/08/22 05:44:03;;;;;;;14.10;13.33;;;24.70;31.80;;;;;;5079607;28;20203;-80
2023/08/22 05:46:28;;;;;;;15.90;15.00;;;24.70;31.50;;;;;;5080763;28;20182;-78
2023/08/22 05:48:54;;;;;;;16.60;15.80;;;24.60;31.20;;;;;;5076220;28;20175;-78
2023/08/22 05:51:20;;;;;;;16.63;15.77;;;24.60;31.60;;;;;;5073669;28;20225;-78
2023/08/22 05:53:45;;;;;;;16.97;16.00;;;24.60;31.70;;;;;;5073712;28;20207;-78
2023/08/22 05:56:11;;;;;;;18.07;16.90;;;24.70;31.70;;;;;;5075894;28;20285;-80
2023/08/22 05:58:37;;;;;;;16.37;15.37;;;24.70;31.60;;;;;;5075942;28;20703;-76
2023/08/22 06:01:10;;;;;;;16.27;15.27;;;24.70;31.80;;;;;;5072927;28;20445;-75
2023/08/22 06:03:36;;;;;;;16.40;15.60;;;24.70;31.70;;;;;;5073435;28;20260;-78
2023/08/22 06:06:03;;;;;;;17.07;15.70;;;24.80;31.10;;;;;;5076026;28;20435;-79
2023/08/22 06:08:28;;;;;;;16.63;15.57;;;24.80;31.20;;;;;;5058204;28;20449;-77
2023/08/22 06:10:54;;;;;;;17.33;16.20;;;24.80;30.80;;;;;;5056153;28;20804;-79
2023/08/22 06:13:19;;;;;;;15.00;14.30;;;24.80;30.90;;;;;;5074441;28;20183;-77
2023/08/22 06:15:45;;;;;;;16.70;15.80;;;24.80;31.10;;;;;;5087778;28;20301;-75
2023/08/22 06:18:10;;;;;;;15.70;14.80;;;24.80;31.10;;;;;;5093754;28;20170;-76
2023/08/22 06:20:39;;;;;;;15.83;14.93;;;24.80;31.00;;;;;;5093738;28;20541;-76
2023/08/22 06:23:05;;;;;;;18.27;17.20;;;24.90;31.10;;;;;;5094245;28;20191;-77
2023/08/22 06:25:32;;;;;;;16.67;15.87;;;24.90;30.80;;;;;;5075483;28;20514;-76
2023/08/22 06:27:58;;;;;;;15.73;14.67;;;24.90;30.60;;;;;;5095114;28;21216;-77
2023/08/22 06:30:24;;;;;;;16.80;15.60;;;24.90;30.80;;;;;;5095195;28;20432;-79
2023/08/22 06:32:49;;;;;;;17.40;16.30;;;24.90;30.80;;;;;;5090000;28;20640;-77
2023/08/22 06:35:15;;;;;;;15.63;14.83;;;24.90;30.60;;;;;;5075197;28;20659;-78
2023/08/22 06:37:40;;;;;;;17.00;15.87;;;24.90;30.60;;;;;;5073665;28;20207;-76
2023/08/22 06:40:07;;;;;;;15.80;14.90;;;25.00;30.60;;;;;;5073367;28;20621;-77
2023/08/22 06:42:32;;;;;;;15.67;14.87;;;25.00;30.90;;;;;;5056123;28;20179;-77
2023/08/22 06:44:58;;;;;;;17.17;16.07;;;25.10;30.90;;;;;;5072823;28;20484;-77
2023/08/22 06:47:23;;;;;;;16.13;15.23;;;25.00;30.70;;;;;;5052605;28;20175;-75
2023/08/22 06:49:49;;;;;;;15.80;15.00;;;25.10;30.40;;;;;;5070218;28;20180;-73
2023/08/22 06:52:15;;;;;;;15.90;14.90;;;25.10;30.40;;;;;;5070461;28;20254;-77
2023/08/22 06:54:40;;;;;;;14.93;14.23;;;25.10;30.40;;;;;;5079983;28;20198;-76
2023/08/22 06:57:06;;;;;;;15.07;14.17;;;25.20;30.40;;;;;;5090468;28;20198;-76
2023/08/22 06:59:32;;;;;;;15.43;14.43;;;25.20;29.90;;;;;;5091771;28;20170;-75
2023/08/22 07:01:58;;;;;;;15.50;14.37;;;25.20;30.00;;;;;;5092339;28;20834;-75
2023/08/22 07:04:24;;;;;;;14.17;13.13;;;25.30;30.50;;;;;;5092167;28;20198;-75
2023/08/22 07:06:49;;;;;;;13.13;12.43;;;25.30;30.00;;;;;;5092714;28;20413;-74
2023/08/22 07:09:15;;;;;;;13.50;12.70;;;25.30;30.00;;;;;;5093114;28;20175;-75
2023/08/22 07:11:41;;;;;;;14.20;13.50;;;25.40;29.80;;;;;;5093551;28;20170;-75
2023/08/22 07:14:07;;;;;;;13.67;12.67;;;25.40;29.70;;;;;;5092959;28;20288;-76
2023/08/22 07:16:33;;;;;;;13.13;12.40;;;25.40;30.00;;;;;;5078746;28;20544;-76
2023/08/22 07:19:01;;;;;;;13.20;12.40;;;25.50;29.50;;;;;;5075715;28;20175;-76
2023/08/22 07:21:27;;;;;;;13.17;12.47;;;25.50;29.10;;;;;;5075975;28;20577;-76
2023/08/22 07:23:52;;;;;;;14.00;13.20;;;25.60;29.10;;;;;;5076122;28;20435;-76
2023/08/22 07:26:18;;;;;;;13.13;12.00;;;25.60;29.00;;;;;;5076881;28;20189;-77
2023/08/22 07:28:43;;;;;;;13.27;12.50;;;25.70;29.10;;;;;;5076234;28;20183;-77
2023/08/22 07:31:09;;;;;;;13.90;13.00;;;25.70;29.00;;;;;;5077093;28;20190;-77
2023/08/22 07:33:34;;;;;;;11.57;10.97;;;25.70;28.70;;;;;;5076766;28;20175;-76
2023/08/22 07:36:01;;;;;;;13.83;12.93;;;25.80;28.70;;;;;;5059539;28;20207;-76
2023/08/22 07:38:28;;;;;;;14.23;13.07;;;25.90;28.50;;;;;;5061914;28;20182;-77
2023/08/22 07:40:53;;;;;;;11.90;11.30;;;25.90;28.60;;;;;;5077446;28;20493;-77
2023/08/22 07:43:19;;;;;;;13.20;12.00;;;26.00;28.50;;;;;;5077558;28;20437;-77
2023/08/22 07:45:45;;;;;;;13.10;12.30;;;26.00;28.30;;;;;;5086102;28;20210;-78
2023/08/22 07:48:10;;;;;;;11.63;10.93;;;26.10;27.70;;;;;;5098668;28;20159;-76
2023/08/22 07:50:36;;;;;;;12.57;11.87;;;26.10;27.60;;;;;;5096065;28;20618;-76
2023/08/22 07:53:04;;;;;;;12.47;11.60;;;26.20;27.50;;;;;;5096209;28;20255;-75
2023/08/22 07:55:30;;;;;;;12.40;11.80;;;26.20;27.20;;;;;;5095815;28;20198;-75
2023/08/22 07:57:55;;;;;;;12.10;11.37;;;26.30;27.50;;;;;;5095747;28;20419;-75
2023/08/22 08:00:22;;;;;;;12.00;11.40;;;26.40;27.60;;;;;;5095978;28;20171;-76
2023/08/22 08:02:49;;;;;;;12.57;11.97;;;26.50;27.00;;;;;;5095159;28;20190;-74
2023/08/22 08:05:14;;;;;;;13.03;12.23;;;26.50;26.90;;;;;;5095588;28;20428;-74
2023/08/22 08:07:40;;;;;;;12.70;11.70;;;26.50;27.20;;;;;;5095340;28;20417;-74
2023/08/22 08:10:07;;;;;;;12.17;11.47;;;26.60;26.90;;;;;;5078853;28;20219;-72
2023/08/22 08:12:33;;;;;;;12.80;11.93;;;26.60;26.60;;;;;;5098302;28;20175;-76
2023/08/22 08:14:58;;;;;;;12.30;11.30;;;26.60;26.30;;;;;;5095636;28;20803;-76
2023/08/22 08:17:25;;;;;;;12.20;11.50;;;26.70;26.20;;;;;;5095554;28;20599;-75
2023/08/22 08:19:51;;;;;;;12.60;11.67;;;26.70;26.20;;;;;;5074365;28;20621;-74
2023/08/22 08:22:20;;;;;;;12.97;12.27;;;26.80;26.00;;;;;;5075453;28;20440;-74
2023/08/22 08:24:46;;;;;;;12.67;12.07;;;26.80;26.00;;;;;;5074608;28;20578;-75
2023/08/22 08:27:11;;;;;;;12.43;11.73;;;26.90;25.40;;;;;;5089603;28;20426;-75
2023/08/22 08:29:37;;;;;;;12.47;11.80;;;26.90;25.00;;;;;;5094517;28;20229;-75
2023/08/22 08:32:03;;;;;;;11.47;10.77;;;27.10;24.60;;;;;;5096324;28;20255;-76
2023/08/22 08:34:29;;;;;;;13.37;12.57;;;27.10;24.60;;;;;;5085103;28;20223;-77
2023/08/22 08:36:55;;;;;;;12.73;11.93;;;27.20;24.40;;;;;;5074855;28;20834;-75
2023/08/22 08:39:21;;;;;;;12.20;11.40;;;27.20;24.40;;;;;;5074779;28;20171;-77
2023/08/22 08:42:01;;;;;;;13.00;12.30;;;27.30;24.40;;;;;;5074757;28;20817;-76
2023/08/22 08:44:27;;;;;;;14.90;13.80;;;27.30;24.30;;;;;;5075100;28;20191;-76
2023/08/22 08:46:54;;;;;;;12.13;11.43;;;27.40;23.20;;;;;;5074241;28;21129;-77
2023/08/22 08:49:20;;;;;;;13.40;12.27;;;27.30;23.70;;;;;;5074330;28;20421;-78
2023/08/22 08:51:47;;;;;;;13.23;12.53;;;27.40;23.90;;;;;;5056425;28;20470;-75
2023/08/22 08:54:13;;;;;;;13.33;12.43;;;27.40;23.80;;;;;;5074726;28;20429;-79
2023/08/22 08:56:40;;;;;;;13.70;12.90;;;27.50;23.90;;;;;;5074477;28;20471;-76
2023/08/22 08:59:06;;;;;;;13.67;12.70;;;27.50;23.80;;;;;;5073792;28;20459;-75
2023/08/22 09:01:33;;;;;;;13.50;12.80;;;27.50;23.90;;;;;;5094787;28;20897;-76
2023/08/22 09:04:00;;;;;;;15.57;12.87;;;27.60;24.10;;;;;;5094717;28;20198;-77
2023/08/22 09:06:26;;;;;;;13.80;12.90;;;27.60;24.30;;;;;;5094471;28;20840;-76
2023/08/22 09:09:04;;;;;;;16.23;15.30;;;27.60;24.20;;;;;;5094156;28;20416;-76
2023/08/22 09:11:29;;;;;;;14.23;13.10;;;27.70;24.10;;;;;;5094322;28;20551;-75
2023/08/22 09:13:55;;;;;;;14.77;13.97;;;27.80;23.90;;;;;;5099428;28;20437;-77
2023/08/22 09:16:24;;;;;;;14.17;12.80;;;27.90;23.60;;;;;;5079234;28;20213;-77
2023/08/22 09:18:49;;;;;;;13.77;13.07;;;27.90;23.50;;;;;;5076252;28;20457;-76
2023/08/22 09:21:16;;;;;;;12.43;11.80;;;28.00;23.30;;;;;;5095403;28;20409;-77
2023/08/22 09:23:42;;;;;;;12.93;12.30;;;28.00;23.50;;;;;;5095337;28;20194;-76
2023/08/22 09:26:11;;;;;;;12.67;12.00;;;28.10;23.20;;;;;;5093748;28;20526;-75
2023/08/22 09:28:40;;;;;;;13.57;12.83;;;28.20;23.10;;;;;;5093786;28;20178;-76
2023/08/22 09:31:06;;;;;;;13.77;13.10;;;28.30;22.50;;;;;;5093820;28;20940;-75
2023/08/22 09:33:45;;;;;;;12.77;12.17;;;28.50;22.30;;;;;;5094110;28;20412;-76
2023/08/22 09:36:12;;;;;;;13.50;12.60;;;28.80;21.80;;;;;;5077014;28;20206;-78
2023/08/22 09:38:51;;;;;;;13.53;12.83;;;29.00;21.30;;;;;;5091428;28;20416;-77
2023/08/22 09:41:25;;;;;;;13.30;12.40;;;29.20;20.60;;;;;;5067019;28;20421;-77
2023/08/22 09:43:54;;;;;;;13.67;12.77;;;29.40;19.90;;;;;;5093186;28;20538;-76
2023/08/22 09:46:23;;;;;;;11.87;11.27;;;29.50;19.50;;;;;;5093181;28;20414;-75
2023/08/22 09:48:50;;;;;;;13.50;12.70;;;29.70;19.10;;;;;;5092993;28;20423;-75
2023/08/22 09:51:19;;;;;;;13.87;12.97;;;29.80;18.90;;;;;;5093339;28;20893;-76
2023/08/22 09:53:50;;;;;;;12.40;11.80;;;29.90;19.00;;;;;;5092994;28;20425;-77
2023/08/22 09:56:20;;;;;;;13.17;12.50;;;29.90;19.00;;;;;;5093390;28;20492;-76
2023/08/22 09:58:49;;;;;;;12.10;11.50;;;30.10;18.80;;;;;;5093442;28;20777;-77
2023/08/22 10:01:16;;;;;;;14.10;13.10;;;30.30;17.40;;;;;;5075660;28;20466;-77
2023/08/22 10:03:43;;;;;;;14.03;12.60;;;30.40;17.20;;;;;;5074884;28;20440;-76
2023/08/22 10:06:13;;;;;;;12.60;12.00;;;30.40;17.80;;;;;;5093357;28;20874;-78
2023/08/22 10:08:40;;;;;;;12.70;12.00;;;30.40;17.50;;;;;;5075263;28;20874;-75
2023/08/22 10:11:08;;;;;;;12.30;11.60;;;30.40;17.30;;;;;;5093407;28;20421;-76
2023/08/22 10:13:38;;;;;;;13.00;12.27;;;30.50;17.00;;;;;;5095636;28;20415;-75
2023/08/22 10:16:05;;;;;;;13.27;12.17;;;30.60;16.60;;;;;;5099660;28;20973;-77
2023/08/22 10:18:31;;;;;;;13.53;12.33;;;30.70;16.20;;;;;;5098979;28;20425;-77
2023/08/22 10:20:56;;;;;;;12.07;11.40;;;30.90;15.80;;;;;;5076048;28;20428;-75
2023/08/22 10:23:53;;;;;;;12.47;11.57;;;31.00;15.10;;;;;;5093278;28;20419;-75
2023/08/22 10:26:20;;;;;;;11.87;11.00;;;31.00;15.20;;;;;;5093178;28;20544;-77
2023/08/22 10:29:12;;;;;;;13.17;11.90;;;31.10;15.10;;;;;;5093513;28;20416;-77
2023/08/22 10:32:03;;;;;;;11.83;11.13;;;31.10;14.90;;;;;;5093493;28;20433;-77
2023/08/22 10:34:38;;;;;;;12.77;12.07;;;31.10;15.20;;;;;;5092434;28;20432;-77
2023/08/22 10:37:14;;;;;;;12.70;11.47;;;31.00;15.20;;;;;;5093821;28;20975;-76
2023/08/22 10:39:41;;;;;;;12.00;11.40;;;31.00;14.60;;;;;;5072387;28;20432;-78
2023/08/22 10:42:18;;;;;;;12.30;11.60;;;31.20;13.80;;;;;;5085874;28;20439;-76
2023/08/22 10:44:55;;;;;;;12.20;11.50;;;31.30;13.60;;;;;;5081677;28;20504;-74
2023/08/22 10:47:28;;;;;;;13.03;12.23;;;31.50;13.70;;;;;;5077244;28;20460;-78
2023/08/22 10:49:55;;;;;;;12.63;11.73;;;31.50;13.60;;;;;;5075334;28;20424;-76
2023/08/22 10:52:44;;;;;;;13.20;12.30;;;31.40;14.00;;;;;;5092634;28;20419;-76
2023/08/22 10:55:10;;;;;;;12.27;11.67;;;31.40;14.30;;;;;;5075998;28;20459;-75
2023/08/22 10:57:37;;;;;;;12.20;11.60;;;31.30;13.10;;;;;;5072609;28;20453;-76
2023/08/22 11:00:19;;;;;;;13.00;12.40;;;31.20;13.50;;;;;;5081100;28;20179;-74
2023/08/22 11:02:48;;;;;;;13.23;12.43;;;31.10;13.70;;;;;;5078070;28;20424;-75
2023/08/22 11:05:15;;;;;;;12.03;11.43;;;31.10;14.00;;;;;;5075645;28;20478;-74
2023/08/22 11:07:43;;;;;;;11.70;11.07;;;31.10;13.90;;;;;;5064921;28;20474;-75
2023/08/22 11:10:13;;;;;;;14.53;11.47;;;30.90;13.40;;;;;;5083518;28;20433;-76
2023/08/22 11:12:39;;;;;;;12.63;11.93;;;30.90;13.60;;;;;;5077328;28;20416;-74
2023/08/22 11:15:05;;;;;;;13.20;12.00;;;30.80;13.90;;;;;;5062887;28;20521;-75
2023/08/22 11:17:31;;;;;;;13.20;12.30;;;30.80;14.40;;;;;;5075191;28;20202;-74
2023/08/22 11:19:59;;;;;;;11.40;10.80;;;30.70;14.60;;;;;;5077574;28;20432;-75
2023/08/22 11:22:25;;;;;;;12.60;11.93;;;30.60;14.30;;;;;;5098811;28;20178;-74
2023/08/22 11:24:51;;;;;;;12.63;11.83;;;30.50;14.80;;;;;;5097430;28;20421;-75
2023/08/22 11:27:18;;;;;;;12.90;12.30;;;30.40;14.80;;;;;;5104581;28;20182;-74
2023/08/22 11:29:45;;;;;;;13.17;12.57;;;30.30;15.20;;;;;;5095482;28;20441;-75
2023/08/22 11:32:31;;;;;;;12.60;11.87;;;30.30;14.90;;;;;;5087190;28;20520;-75
2023/08/22 11:35:00;;;;;;;12.70;11.70;;;30.20;15.10;;;;;;5080335;28;20456;-75
2023/08/22 11:37:28;;;;;;;12.53;11.83;;;30.10;14.70;;;;;;5077101;28;20457;-75
2023/08/22 11:39:57;;;;;;;12.10;11.20;;;30.10;15.40;;;;;;5073713;28;20420;-77
2023/08/22 11:42:27;;;;;;;12.00;11.40;;;30.00;15.40;;;;;;5072272;28;20421;-77
2023/08/22 11:45:04;;;;;;;12.90;12.10;;;30.00;14.80;;;;;;5053949;28;20445;-76
2023/08/22 11:47:44;;;;;;;13.43;12.63;;;30.00;15.30;;;;;;5057988;28;20448;-75
2023/08/22 11:50:15;;;;;;;13.10;12.40;;;30.00;15.40;;;;;;5073497;28;20459;-75
2023/08/22 11:52:42;;;;;;;11.87;11.23;;;30.00;15.10;;;;;;5091951;28;20417;-75
2023/08/22 11:55:10;;;;;;;12.07;11.27;;;30.00;15.10;;;;;;5092084;28;20478;-75
2023/08/22 11:57:39;;;;;;;12.30;11.70;;;30.10;14.70;;;;;;5091506;28;20547;-75
2023/08/22 12:00:09;;;;;;;12.50;11.90;;;30.00;14.60;;;;;;5092039;28;20462;-75
2023/08/22 12:02:35;;;;;;;11.67;11.03;;;30.10;14.50;;;;;;5074144;28;20405;-75
2023/08/22 12:05:01;;;;;;;13.50;12.40;;;30.20;14.50;;;;;;5075161;28;20483;-75
2023/08/22 12:07:26;;;;;;;10.80;10.30;;;30.20;14.30;;;;;;5057147;28;20425;-74
2023/08/22 12:10:03;;;;;;;12.97;12.10;;;30.10;14.30;;;;;;5073861;28;20488;-75
2023/08/22 12:12:30;;;;;;;11.30;10.70;;;30.10;14.70;;;;;;5073035;28;20716;-75
2023/08/22 12:14:56;;;;;;;10.67;10.07;;;30.10;14.60;;;;;;5073191;28;20433;-75
2023/08/22 12:17:22;;;;;;;11.30;10.60;;;30.20;14.30;;;;;;5073171;28;20459;-75
2023/08/22 12:19:47;;;;;;;10.70;10.10;;;30.30;14.30;;;;;;5072900;28;20397;-75
2023/08/22 12:22:13;;;;;;;11.70;11.10;;;30.40;13.80;;;;;;5072780;28;20409;-75
2023/08/22 12:24:38;;;;;;;11.37;10.53;;;30.50;13.40;;;;;;5072756;28;20187;-75
2023/08/22 12:27:04;;;;;;;11.87;10.67;;;30.60;13.20;;;;;;5073276;28;20232;-75
2023/08/22 12:29:30;;;;;;;12.57;11.90;;;30.60;13.40;;;;;;5072504;28;20176;-75
2023/08/22 12:31:55;;;;;;;11.80;11.20;;;30.50;13.00;;;;;;5072859;28;20183;-74
2023/08/22 12:34:21;;;;;;;11.90;11.30;;;30.50;12.60;;;;;;5084835;28;20195;-75
2023/08/22 12:36:46;;;;;;;11.10;10.50;;;30.50;12.70;;;;;;5094690;28;20202;-75
2023/08/22 12:39:12;;;;;;;12.10;11.30;;;30.50;13.10;;;;;;5094477;28;20175;-75
2023/08/22 12:41:40;;;;;;;11.53;11.00;;;30.40;13.10;;;;;;5076594;28;20206;-75
2023/08/22 12:44:06;;;;;;;11.50;10.80;;;30.30;13.60;;;;;;5094451;28;20194;-75